Volkel, Netherlands
Current Conditions -  °F | °C
As of 8:25 AM on Saturday 29 Nov 2014 (Local Time) from EHVK Reporting Station
Haze Haze  
Wind Chill: 26°   Ceiling: Unl
Heat Index: 34°   Visibility: 2.7mi
Dew Point: 32°   Wind: 9mph
Humidity: 93%   Direction: 70°ENE
Pressure: 29.94"   Gusts: NA
Location:  51.64°N, 5.65°E
Report Text: EHVK 290725Z AUTO 07008KT 4400 BR NCD 01/M00 Q1014 GRN
Loading
Personal Weather Stations






























Interactive Weather Map New forecast layout! Learn more

10-Day Weather Forecast

Advertisements
Track Severe Weather on mobile